createdAt,value
2019-05-01T00:00:00.330Z,0.00
2019-05-01T00:01:53.336Z,0.00
2019-05-01T00:02:53.371Z,0.00
2019-05-01T00:04:46.350Z,0.00
2019-05-01T00:05:46.405Z,0.00
2019-05-01T00:07:39.458Z,0.00
2019-05-01T00:08:39.458Z,0.00
2019-05-01T00:10:32.430Z,0.00
2019-05-01T00:11:32.485Z,0.00
2019-05-01T00:13:25.500Z,0.00
2019-05-01T00:14:25.529Z,0.00
2019-05-01T00:16:18.506Z,0.00
2019-05-01T00:17:18.568Z,0.00
2019-05-01T00:19:11.589Z,0.00
2019-05-01T00:20:11.613Z,0.00
2019-05-01T00:22:04.602Z,0.00
2019-05-01T00:23:04.664Z,0.00
2019-05-01T00:24:57.678Z,0.00
2019-05-01T00:25:57.707Z,0.00
2019-05-01T00:27:50.698Z,0.00
2019-05-01T00:28:50.741Z,0.00
2019-05-01T00:30:43.752Z,0.00
2019-05-01T00:31:43.789Z,0.00
2019-05-01T00:33:36.796Z,0.00
2019-05-01T00:34:36.857Z,0.00
2019-05-01T00:36:29.856Z,0.00
2019-05-01T00:37:29.897Z,0.00
2019-05-01T00:39:22.897Z,0.00
2019-05-01T00:40:22.935Z,0.00
2019-05-01T00:42:15.934Z,0.00
2019-05-01T00:43:15.978Z,0.00
2019-05-01T00:45:09.043Z,0.00
2019-05-01T00:46:09.075Z,0.00
2019-05-01T00:48:02.059Z,0.00
2019-05-01T00:49:02.116Z,0.00
2019-05-01T00:50:55.124Z,0.00
2019-05-01T00:51:55.152Z,0.00
2019-05-01T00:53:48.136Z,0.00
2019-05-01T00:54:48.200Z,0.00
2019-05-01T00:56:41.193Z,0.00
2019-05-01T00:57:41.228Z,0.00
2019-05-01T00:59:34.228Z,0.00
2019-05-01T01:00:42.896Z,0.00
2019-05-01T01:02:27.298Z,0.00
2019-05-01T01:03:27.340Z,0.00
2019-05-01T01:05:20.820Z,0.00
2019-05-01T01:06:20.878Z,0.00
2019-05-01T01:08:13.891Z,0.00
2019-05-01T01:09:13.915Z,0.00
2019-05-01T01:11:06.899Z,0.00
2019-05-01T01:12:06.958Z,0.00
2019-05-01T01:13:59.948Z,0.00
2019-05-01T01:14:59.993Z,0.00
2019-05-01T01:16:52.979Z,0.00
2019-05-01T01:17:53.036Z,0.00
2019-05-01T01:19:46.040Z,0.00
2019-05-01T01:20:46.078Z,0.00
2019-05-01T01:22:39.057Z,0.00
2019-05-01T01:23:39.119Z,0.00
2019-05-01T01:25:32.132Z,0.00
2019-05-01T01:26:32.162Z,0.00
2019-05-01T01:28:25.136Z,0.00
2019-05-01T01:29:25.194Z,0.00
2019-05-01T01:31:18.199Z,0.00
2019-05-01T01:32:18.236Z,0.00
2019-05-01T01:34:11.228Z,0.00
2019-05-01T01:35:11.284Z,0.00
2019-05-01T01:37:04.303Z,0.00
2019-05-01T01:38:04.329Z,0.00
2019-05-01T01:39:57.310Z,0.00
2019-05-01T01:40:57.369Z,0.00
2019-05-01T01:42:50.371Z,0.00
2019-05-01T01:43:50.405Z,0.00
2019-05-01T01:45:43.421Z,0.00
2019-05-01T01:46:43.446Z,0.00
2019-05-01T01:48:36.437Z,0.00
2019-05-01T01:49:36.494Z,0.00
2019-05-01T01:51:29.522Z,0.00
2019-05-01T01:52:29.557Z,0.00
2019-05-01T01:54:22.546Z,0.00
2019-05-01T01:55:22.603Z,0.00
2019-05-01T01:57:15.614Z,0.00
2019-05-01T01:58:15.645Z,0.00
2019-05-01T02:00:08.636Z,0.00
2019-05-01T02:01:09.861Z,0.00
2019-05-01T02:03:01.692Z,0.00
2019-05-01T02:04:01.733Z,0.00
2019-05-01T02:05:56.245Z,0.00
2019-05-01T02:06:56.277Z,0.00
2019-05-01T02:08:56.402Z,0.00
2019-05-01T02:09:49.322Z,0.00
2019-05-01T02:11:42.293Z,0.00
2019-05-01T02:12:42.358Z,0.00
2019-05-01T02:14:35.370Z,0.00
2019-05-01T02:15:35.398Z,0.00
2019-05-01T02:17:28.381Z,0.00
2019-05-01T02:18:28.441Z,0.00
2019-05-01T02:20:21.442Z,0.00
2019-05-01T02:21:21.477Z,0.00
2019-05-01T02:23:14.480Z,0.00
2019-05-01T02:24:14.520Z,0.00
2019-05-01T02:26:07.525Z,0.00
2019-05-01T02:27:07.566Z,0.00
2019-05-01T02:29:00.571Z,0.00
2019-05-01T02:30:00.611Z,0.00
2019-05-01T02:31:53.615Z,0.00
2019-05-01T02:32:53.645Z,0.00
2019-05-01T02:34:46.623Z,0.00
2019-05-01T02:35:46.681Z,0.00
2019-05-01T02:37:39.684Z,0.00
2019-05-01T02:38:39.725Z,0.00
2019-05-01T02:40:32.732Z,0.00
2019-05-01T02:41:32.758Z,0.00
2019-05-01T02:43:25.754Z,0.00
2019-05-01T02:44:25.803Z,0.00
2019-05-01T02:46:18.813Z,0.00
2019-05-01T02:47:18.844Z,0.00
2019-05-01T02:49:11.829Z,0.00
2019-05-01T02:50:11.888Z,0.00
2019-05-01T02:52:04.907Z,0.00
2019-05-01T02:53:04.932Z,0.00
2019-05-01T02:54:57.912Z,0.00
2019-05-01T02:55:57.970Z,0.00
2019-05-01T02:57:50.984Z,0.00
2019-05-01T02:58:51.005Z,0.00
2019-05-01T03:00:44.006Z,0.00
2019-05-01T03:01:47.668Z,0.00
2019-05-01T03:03:37.062Z,0.00
2019-05-01T03:04:37.106Z,0.00
2019-05-01T03:06:30.083Z,0.00
2019-05-01T03:07:30.148Z,0.00
2019-05-01T03:09:23.172Z,0.00
2019-05-01T03:10:23.197Z,0.00
2019-05-01T03:12:16.170Z,0.00
2019-05-01T03:13:16.226Z,0.00
2019-05-01T03:15:09.237Z,0.00
2019-05-01T03:16:09.270Z,0.00
2019-05-01T03:18:02.244Z,0.00
2019-05-01T03:19:02.302Z,0.00
2019-05-01T03:20:55.309Z,0.00
2019-05-01T03:21:55.348Z,0.00
2019-05-01T03:23:48.337Z,0.00
2019-05-01T03:24:48.389Z,0.00
2019-05-01T03:26:41.389Z,0.00
2019-05-01T03:27:41.435Z,0.00
2019-05-01T03:29:34.417Z,0.00
2019-05-01T03:30:34.475Z,0.00
2019-05-01T03:32:27.478Z,0.00
2019-05-01T03:33:27.512Z,0.00
2019-05-01T03:35:20.521Z,0.00
2019-05-01T03:36:20.568Z,0.00
2019-05-01T03:38:13.533Z,0.00
2019-05-01T03:39:13.593Z,0.00
2019-05-01T03:41:06.599Z,0.00
2019-05-01T03:42:06.629Z,0.00
2019-05-01T03:43:59.637Z,0.00
2019-05-01T03:44:59.671Z,0.00
2019-05-01T03:46:52.653Z,0.00
2019-05-01T03:47:52.706Z,0.00
2019-05-01T03:49:45.710Z,0.00
2019-05-01T03:50:47.003Z,0.00
2019-05-01T03:52:38.739Z,0.00
2019-05-01T03:53:38.784Z,0.00
2019-05-01T03:55:31.765Z,0.00
2019-05-01T03:56:31.829Z,0.00
2019-05-01T03:58:24.833Z,0.00
2019-05-01T03:59:24.872Z,0.00
2019-05-01T04:01:17.843Z,0.00
2019-05-01T04:02:32.304Z,0.00
2019-05-01T04:04:10.923Z,0.00
2019-05-01T04:05:10.960Z,0.00
2019-05-01T04:07:03.941Z,0.00
2019-05-01T04:08:04.011Z,5.63
2019-05-01T04:09:57.007Z,5.63
2019-05-01T04:10:57.036Z,5.63
2019-05-01T04:12:50.017Z,5.63
2019-05-01T04:13:50.071Z,5.63
2019-05-01T04:15:43.079Z,5.63
2019-05-01T04:16:43.108Z,5.63
2019-05-01T04:18:36.099Z,5.63
2019-05-01T04:19:36.152Z,11.25
2019-05-01T04:21:29.166Z,11.25
2019-05-01T04:22:29.189Z,11.25
2019-05-01T04:24:22.170Z,11.25
2019-05-01T04:25:22.232Z,11.25
2019-05-01T04:27:15.234Z,11.25
2019-05-01T04:28:15.267Z,16.88
2019-05-01T04:30:08.249Z,16.88
2019-05-01T04:31:08.311Z,16.88
2019-05-01T04:33:01.314Z,22.50
2019-05-01T04:34:01.344Z,16.88
2019-05-01T04:35:54.335Z,22.50
2019-05-01T04:36:54.394Z,22.50
2019-05-01T04:38:47.409Z,22.50
2019-05-01T04:39:47.445Z,22.50
2019-05-01T04:41:40.425Z,22.50
2019-05-01T04:42:40.479Z,22.50
2019-05-01T04:44:33.512Z,28.13
2019-05-01T04:45:33.515Z,28.13
2019-05-01T04:47:26.527Z,22.50
2019-05-01T04:48:26.561Z,28.13
2019-05-01T04:50:19.530Z,28.13
2019-05-01T04:51:19.590Z,28.13
2019-05-01T04:53:12.586Z,28.13
2019-05-01T04:54:12.628Z,28.13
2019-05-01T04:56:05.609Z,28.13
2019-05-01T04:57:05.665Z,33.75
2019-05-01T04:58:58.668Z,39.38
2019-05-01T04:59:58.703Z,45.00
2019-05-01T05:01:51.687Z,50.63
2019-05-01T05:03:04.058Z,50.63
2019-05-01T05:04:44.754Z,56.25
2019-05-01T05:05:44.784Z,56.25
2019-05-01T05:07:37.765Z,56.25
2019-05-01T05:08:37.823Z,56.25
2019-05-01T05:10:30.830Z,61.88
2019-05-01T05:11:30.864Z,61.88
2019-05-01T05:13:23.839Z,67.50
2019-05-01T05:14:23.898Z,67.50
2019-05-01T05:16:16.906Z,61.88
2019-05-01T05:17:16.932Z,61.88
2019-05-01T05:19:09.911Z,61.88
2019-05-01T05:20:09.969Z,73.13
2019-05-01T05:22:03.017Z,78.75
2019-05-01T05:23:03.015Z,73.13
2019-05-01T05:24:56.021Z,67.50
2019-05-01T05:25:56.062Z,67.50
2019-05-01T05:27:49.037Z,73.13
2019-05-01T05:28:49.087Z,73.13
2019-05-01T05:30:42.093Z,73.13
2019-05-01T05:31:42.123Z,73.13
2019-05-01T05:33:35.104Z,73.13
2019-05-01T05:34:35.181Z,78.75
2019-05-01T05:36:28.203Z,90.00
2019-05-01T05:37:28.199Z,84.38
2019-05-01T05:39:21.199Z,90.00
2019-05-01T05:40:21.235Z,90.00
2019-05-01T05:42:14.242Z,95.63
2019-05-01T05:43:14.272Z,95.63
2019-05-01T05:45:07.248Z,95.63
2019-05-01T05:46:07.313Z,95.63
2019-05-01T05:48:00.311Z,90.00
2019-05-01T05:49:00.348Z,90.00
2019-05-01T05:50:53.376Z,95.63
2019-05-01T05:51:53.388Z,95.63
2019-05-01T05:53:46.367Z,95.63
2019-05-01T05:54:46.424Z,101.25
2019-05-01T05:56:39.424Z,106.88
2019-05-01T05:57:39.463Z,106.88
2019-05-01T05:59:32.461Z,95.63
2019-05-01T06:00:32.501Z,95.63
2019-05-01T06:02:25.509Z,106.88
2019-05-01T06:03:31.215Z,112.50
2019-05-01T06:05:20.045Z,118.13
2019-05-01T06:06:20.098Z,118.13
2019-05-01T06:08:13.096Z,112.50
2019-05-01T06:09:13.869Z,118.13
2019-05-01T06:11:06.134Z,118.13
2019-05-01T06:12:09.033Z,123.75
2019-05-01T06:13:59.190Z,123.75
2019-05-01T06:15:02.439Z,118.13
2019-05-01T06:16:54.015Z,123.75
2019-05-01T06:17:52.242Z,123.75
2019-05-01T06:19:45.922Z,118.13
2019-05-01T06:20:45.338Z,118.13
2019-05-01T06:22:40.762Z,129.38
2019-05-01T06:23:38.320Z,140.63
2019-05-01T06:25:31.316Z,140.63
2019-05-01T06:26:37.365Z,140.63
2019-05-01T06:28:24.694Z,146.25
2019-05-01T06:29:24.394Z,140.63
2019-05-01T06:31:17.728Z,140.63
2019-05-01T06:32:17.433Z,135.00
2019-05-01T06:34:10.414Z,135.00
2019-05-01T06:35:10.475Z,129.38
2019-05-01T06:37:03.486Z,129.38
2019-05-01T06:38:03.525Z,140.63
2019-05-01T06:39:56.503Z,180.00
2019-05-01T06:40:58.110Z,185.63
2019-05-01T06:42:50.116Z,185.63
2019-05-01T06:43:49.597Z,180.00
2019-05-01T06:45:42.576Z,191.25
2019-05-01T06:46:42.634Z,191.25
2019-05-01T06:48:35.647Z,174.38
2019-05-01T06:49:35.681Z,174.38
2019-05-01T06:51:28.668Z,180.00
2019-05-01T06:52:29.324Z,163.13
2019-05-01T06:54:21.732Z,157.50
2019-05-01T06:55:22.623Z,163.13
2019-05-01T06:57:14.760Z,168.75
2019-05-01T06:58:20.264Z,163.13
2019-05-01T07:00:09.291Z,185.63
2019-05-01T07:01:07.858Z,174.38
2019-05-01T07:03:00.833Z,168.75
2019-05-01T07:04:04.154Z,157.50
2019-05-01T07:05:56.231Z,157.50
2019-05-01T07:06:54.437Z,157.50
2019-05-01T07:08:47.426Z,157.50
2019-05-01T07:09:49.203Z,168.75
2019-05-01T07:11:42.316Z,185.63
2019-05-01T07:12:40.521Z,185.63
2019-05-01T07:14:33.529Z,180.00
2019-05-01T07:15:33.562Z,185.63
2019-05-01T07:17:26.539Z,191.25
2019-05-01T07:18:29.054Z,196.88
2019-05-01T07:20:19.611Z,213.75
2019-05-01T07:21:22.859Z,213.75
2019-05-01T07:23:12.912Z,202.50
2019-05-01T07:24:12.676Z,202.50
2019-05-01T07:26:09.981Z,202.50
2019-05-01T07:27:05.742Z,213.75
2019-05-01T07:28:58.732Z,219.38
2019-05-01T07:29:58.789Z,225.00
2019-05-01T07:31:51.791Z,213.75
2019-05-01T07:32:51.828Z,213.75
2019-05-01T07:34:44.824Z,225.00
2019-05-01T07:35:44.865Z,230.63
2019-05-01T07:37:37.871Z,236.25
2019-05-01T07:38:38.814Z,230.63
2019-05-01T07:40:30.890Z,225.00
2019-05-01T07:41:34.022Z,230.63
2019-05-01T07:43:25.687Z,258.75
2019-05-01T07:44:23.983Z,281.25
2019-05-01T07:46:18.339Z,427.50
2019-05-01T07:47:17.023Z,517.50
2019-05-01T07:49:13.161Z,517.50
2019-05-01T07:50:10.069Z,433.13
2019-05-01T07:52:03.045Z,376.88
2019-05-01T07:53:03.095Z,388.13
2019-05-01T07:54:56.110Z,416.25
2019-05-01T07:55:56.145Z,461.25
2019-05-01T07:57:49.152Z,438.75
2019-05-01T07:58:52.063Z,410.63
2019-05-01T08:00:42.664Z,393.75
2019-05-01T08:01:42.217Z,382.50
2019-05-01T08:03:38.011Z,393.75
2019-05-01T08:04:36.215Z,393.75
2019-05-01T08:06:28.264Z,376.88
2019-05-01T08:07:32.372Z,376.88
2019-05-01T08:09:21.288Z,376.88
2019-05-01T08:10:25.912Z,371.25
2019-05-01T08:12:14.504Z,388.13
2019-05-01T08:13:14.383Z,388.13
2019-05-01T08:15:07.363Z,410.63
2019-05-01T08:16:08.787Z,421.88
2019-05-01T08:18:00.426Z,478.13
2019-05-01T08:19:04.161Z,495.00
2019-05-01T08:20:53.450Z,478.13
2019-05-01T08:21:57.001Z,466.88
2019-05-01T08:23:47.250Z,444.38
2019-05-01T08:24:46.556Z,444.38
2019-05-01T08:26:43.773Z,450.00
2019-05-01T08:27:39.615Z,421.88
2019-05-01T08:29:32.593Z,388.13
2019-05-01T08:30:32.640Z,376.88
2019-05-01T08:32:25.648Z,388.13
2019-05-01T08:33:25.680Z,393.75
2019-05-01T08:35:18.664Z,388.13
2019-05-01T08:36:18.721Z,405.00
2019-05-01T08:38:11.732Z,455.63
2019-05-01T08:39:13.874Z,461.25
2019-05-01T08:41:04.776Z,444.38
2019-05-01T08:42:06.986Z,444.38
2019-05-01T08:43:57.839Z,427.50
2019-05-01T08:44:59.950Z,433.13
2019-05-01T08:46:52.080Z,466.88
2019-05-01T08:47:50.910Z,466.88
2019-05-01T08:49:49.452Z,444.38
2019-05-01T08:50:43.952Z,433.13
2019-05-01T08:52:36.934Z,405.00
2019-05-01T08:53:36.998Z,399.38
2019-05-01T08:55:30.022Z,405.00
2019-05-01T08:56:30.050Z,405.00
2019-05-01T08:58:23.049Z,376.88
2019-05-01T08:59:24.120Z,371.25
2019-05-01T09:01:16.437Z,410.63
2019-05-01T09:02:16.137Z,438.75
2019-05-01T09:04:13.134Z,495.00
2019-05-01T09:05:27.277Z,489.38
2019-05-01T09:07:02.187Z,528.75
2019-05-01T09:08:02.243Z,540.00
2019-05-01T09:09:55.234Z,545.63
2019-05-01T09:11:00.089Z,551.25
2019-05-01T09:12:48.378Z,545.63
2019-05-01T09:13:48.319Z,568.13
2019-05-01T09:15:43.643Z,590.63
2019-05-01T09:16:41.358Z,596.25
2019-05-01T09:18:34.334Z,585.00
2019-05-01T09:19:34.401Z,579.38
2019-05-01T09:21:27.395Z,573.75
2019-05-01T09:22:27.444Z,590.63
2019-05-01T09:24:23.019Z,624.38
2019-05-01T09:25:20.498Z,624.38
2019-05-01T09:27:13.508Z,618.75
2019-05-01T09:28:13.544Z,618.75
2019-05-01T09:30:06.548Z,579.38
2019-05-01T09:31:06.587Z,585.00
2019-05-01T09:32:59.573Z,585.00
2019-05-01T09:33:59.628Z,568.13
2019-05-01T09:35:52.635Z,573.75
2019-05-01T09:36:52.669Z,579.38
2019-05-01T09:38:45.680Z,568.13
2019-05-01T09:39:47.310Z,573.75
2019-05-01T09:41:42.800Z,585.00
2019-05-01T09:42:38.773Z,585.00
2019-05-01T09:44:31.769Z,596.25
2019-05-01T09:45:31.817Z,607.50
2019-05-01T09:47:24.837Z,646.88
2019-05-01T09:48:24.864Z,669.38
2019-05-01T09:50:17.889Z,641.25
2019-05-01T09:51:17.903Z,652.50
2019-05-01T09:53:10.925Z,669.38
2019-05-01T09:54:11.037Z,686.25
2019-05-01T09:56:07.791Z,787.50
2019-05-01T09:57:04.011Z,939.38
2019-05-01T09:58:57.006Z,1063.13
2019-05-01T09:59:57.037Z,1040.63
2019-05-01T10:01:50.023Z,978.75
2019-05-01T10:02:50.087Z,945.00
2019-05-01T10:04:43.096Z,967.50
2019-05-01T10:05:44.208Z,950.63
2019-05-01T10:07:36.135Z,877.50
2019-05-01T10:08:40.026Z,888.75
2019-05-01T10:10:30.458Z,804.38
2019-05-01T10:11:29.235Z,759.38
2019-05-01T10:13:24.053Z,708.75
2019-05-01T10:14:24.357Z,691.88
2019-05-01T10:16:15.297Z,759.38
2019-05-01T10:17:15.337Z,776.25
2019-05-01T10:19:08.401Z,810.00
2019-05-01T10:20:08.440Z,787.50
2019-05-01T10:22:03.720Z,770.63
2019-05-01T10:23:01.503Z,826.88
2019-05-01T10:24:54.516Z,883.13
2019-05-01T10:25:55.518Z,866.25
2019-05-01T10:27:47.535Z,900.00
2019-05-01T10:28:49.973Z,888.75
2019-05-01T10:30:40.639Z,888.75
2019-05-01T10:31:42.853Z,883.13
2019-05-01T10:33:36.691Z,905.63
2019-05-01T10:34:38.793Z,961.88
2019-05-01T10:36:30.241Z,1113.75
2019-05-01T10:37:33.732Z,1164.38
2019-05-01T10:39:22.742Z,1108.13
2019-05-01T10:40:26.938Z,1057.50
2019-05-01T10:42:15.805Z,1012.50
2019-05-01T10:43:15.851Z,1001.25
2019-05-01T10:45:08.845Z,1158.75
2019-05-01T10:46:08.910Z,1175.63
2019-05-01T10:48:01.939Z,1057.50
2019-05-01T10:49:01.955Z,1040.63
2019-05-01T10:50:54.946Z,1080.00
2019-05-01T10:51:55.216Z,1141.88
2019-05-01T10:53:48.035Z,1153.13
2019-05-01T10:54:48.054Z,1130.63
2019-05-01T10:56:41.034Z,1192.50
2019-05-01T10:57:42.238Z,1158.75
2019-05-01T10:59:34.118Z,1158.75
2019-05-01T11:00:34.162Z,1091.25
2019-05-01T11:02:27.675Z,1080.00
2019-05-01T11:03:27.711Z,1074.38
2019-05-01T11:05:21.225Z,1136.25
2019-05-01T11:06:21.285Z,1125.00
2019-05-01T11:08:14.293Z,1068.75
2019-05-01T11:09:14.335Z,900.00
2019-05-01T11:11:07.323Z,725.63
2019-05-01T11:12:07.382Z,686.25
2019-05-01T11:14:00.401Z,652.50
2019-05-01T11:15:00.440Z,714.38
2019-05-01T11:16:53.425Z,922.50
2019-05-01T11:17:53.500Z,928.13
2019-05-01T11:19:46.528Z,714.38
2019-05-01T11:20:46.554Z,641.25
2019-05-01T11:22:39.557Z,551.25
2019-05-01T11:23:39.605Z,562.50
2019-05-01T11:25:32.593Z,630.00
2019-05-01T11:26:32.655Z,624.38
2019-05-01T11:28:25.664Z,573.75
2019-05-01T11:29:25.703Z,579.38
2019-05-01T11:31:18.719Z,506.25
2019-05-01T11:32:18.751Z,517.50
2019-05-01T11:34:11.741Z,635.63
2019-05-01T11:35:11.803Z,624.38
2019-05-01T11:37:04.813Z,618.75
2019-05-01T11:38:04.852Z,568.13
2019-05-01T11:39:57.876Z,523.13
2019-05-01T11:40:57.909Z,517.50
2019-05-01T11:42:50.894Z,534.38
2019-05-01T11:43:50.961Z,613.13
2019-05-01T11:45:43.978Z,703.13
2019-05-01T11:46:43.996Z,658.13
2019-05-01T11:48:36.987Z,528.75
2019-05-01T11:49:37.044Z,534.38
2019-05-01T11:51:30.062Z,478.13
2019-05-01T11:52:30.101Z,500.63
2019-05-01T11:54:23.622Z,596.25
2019-05-01T11:55:23.858Z,641.25
2019-05-01T11:57:16.702Z,691.88
2019-05-01T11:58:16.729Z,675.00
2019-05-01T12:00:09.719Z,708.75
2019-05-01T12:01:09.779Z,759.38
2019-05-01T12:03:02.785Z,821.25
2019-05-01T12:04:02.863Z,860.63
2019-05-01T12:05:56.351Z,933.75
2019-05-01T12:06:56.382Z,877.50
2019-05-01T12:08:49.468Z,838.13
2019-05-01T12:09:49.459Z,776.25
2019-05-01T12:11:42.449Z,680.63
2019-05-01T12:12:42.512Z,624.38
2019-05-01T12:14:35.540Z,624.38
2019-05-01T12:15:35.562Z,675.00
2019-05-01T12:17:28.549Z,669.38
2019-05-01T12:18:28.611Z,697.50
2019-05-01T12:20:21.975Z,585.00
2019-05-01T12:21:21.916Z,556.88
2019-05-01T12:23:14.921Z,624.38
2019-05-01T12:24:14.966Z,697.50
2019-05-01T12:26:10.981Z,641.25
2019-05-01T12:27:11.118Z,613.13
2019-05-01T12:29:04.023Z,556.88
2019-05-01T12:30:04.083Z,506.25
2019-05-01T12:32:12.766Z,444.38
2019-05-01T12:33:12.474Z,438.75
2019-05-01T12:35:05.551Z,444.38
2019-05-01T12:36:05.536Z,433.13
2019-05-01T12:37:58.545Z,421.88
2019-05-01T12:38:58.580Z,416.25
2019-05-01T12:40:51.568Z,399.38
2019-05-01T12:41:51.639Z,410.63
2019-05-01T12:43:44.631Z,405.00
2019-05-01T12:44:44.679Z,405.00
2019-05-01T12:46:37.683Z,399.38
2019-05-01T12:47:38.156Z,399.38
2019-05-01T12:49:30.711Z,393.75
2019-05-01T12:50:30.773Z,388.13
2019-05-01T12:52:23.781Z,388.13
2019-05-01T12:53:23.828Z,393.75
2019-05-01T12:55:16.814Z,393.75
2019-05-01T12:56:16.876Z,388.13
2019-05-01T12:58:09.883Z,371.25
2019-05-01T12:59:09.928Z,376.88
2019-05-01T13:01:02.910Z,399.38
2019-05-01T13:02:02.975Z,371.25
2019-05-01T13:03:55.992Z,365.63
2019-05-01T13:04:56.030Z,360.00
2019-05-01T13:06:49.713Z,365.63
2019-05-01T13:07:49.075Z,371.25
2019-05-01T13:09:42.064Z,371.25
2019-05-01T13:10:42.115Z,382.50
2019-05-01T13:12:35.130Z,388.13
2019-05-01T13:13:35.169Z,405.00
2019-05-01T13:15:28.175Z,410.63
2019-05-01T13:16:28.227Z,393.75
2019-05-01T13:18:21.234Z,416.25
2019-05-01T13:19:21.550Z,382.50
2019-05-01T13:21:14.283Z,393.75
2019-05-01T13:22:14.328Z,421.88
2019-05-01T13:24:07.319Z,444.38
2019-05-01T13:25:07.403Z,438.75
2019-05-01T13:27:00.385Z,371.25
2019-05-01T13:28:00.431Z,382.50
2019-05-01T13:29:53.428Z,410.63
2019-05-01T13:30:53.476Z,421.88
2019-05-01T13:32:46.991Z,399.38
2019-05-01T13:33:47.031Z,410.63
2019-05-01T13:35:40.052Z,478.13
2019-05-01T13:36:40.081Z,438.75
2019-05-01T13:38:33.069Z,337.50
2019-05-01T13:39:33.125Z,388.13
2019-05-01T13:41:26.123Z,427.50
2019-05-01T13:42:26.176Z,416.25
2019-05-01T13:44:19.181Z,450.00
2019-05-01T13:45:19.224Z,450.00
2019-05-01T13:47:12.212Z,427.50
2019-05-01T13:48:12.286Z,438.75
2019-05-01T13:50:05.271Z,472.50
2019-05-01T13:51:05.319Z,461.25
2019-05-01T13:52:58.310Z,444.38
2019-05-01T13:53:58.370Z,421.88
2019-05-01T13:55:51.373Z,348.75
2019-05-01T13:56:51.416Z,326.25
2019-05-01T13:58:44.419Z,343.13
2019-05-01T13:59:44.465Z,343.13
2019-05-01T14:01:37.472Z,421.88
2019-05-01T14:02:37.515Z,450.00
2019-05-01T14:04:30.526Z,444.38
2019-05-01T14:05:30.574Z,405.00
2019-05-01T14:07:23.585Z,337.50
2019-05-01T14:08:23.626Z,326.25
2019-05-01T14:10:16.643Z,303.75
2019-05-01T14:11:16.681Z,298.13
2019-05-01T14:13:09.691Z,303.75
2019-05-01T14:14:09.735Z,309.38
2019-05-01T14:16:02.743Z,298.13
2019-05-01T14:17:02.783Z,298.13
2019-05-01T14:18:55.809Z,303.75
2019-05-01T14:19:55.839Z,309.38
2019-05-01T14:21:48.825Z,309.38
2019-05-01T14:22:48.901Z,315.00
2019-05-01T14:24:41.914Z,303.75
2019-05-01T14:25:41.962Z,303.75
2019-05-01T14:27:34.940Z,303.75
2019-05-01T14:28:35.002Z,303.75
2019-05-01T14:30:28.050Z,348.75
2019-05-01T14:31:28.094Z,388.13
2019-05-01T14:33:21.088Z,382.50
2019-05-01T14:34:21.147Z,365.63
2019-05-01T14:36:14.156Z,309.38
2019-05-01T14:37:14.201Z,309.38
2019-05-01T14:39:07.196Z,292.50
2019-05-01T14:40:07.249Z,286.88
2019-05-01T14:42:00.266Z,281.25
2019-05-01T14:43:00.301Z,281.25
2019-05-01T14:44:53.284Z,292.50
2019-05-01T14:45:55.890Z,298.13
2019-05-01T14:47:46.349Z,298.13
2019-05-01T14:48:46.393Z,320.63
2019-05-01T14:50:39.445Z,326.25
2019-05-01T14:51:39.466Z,326.25
2019-05-01T14:53:32.437Z,354.38
2019-05-01T14:54:32.504Z,337.50
2019-05-01T14:56:25.509Z,286.88
2019-05-01T14:57:25.547Z,315.00
2019-05-01T14:59:18.581Z,337.50
2019-05-01T15:00:18.595Z,331.88
2019-05-01T15:02:11.577Z,326.25
2019-05-01T15:03:11.641Z,303.75
2019-05-01T15:05:04.647Z,286.88
2019-05-01T15:06:04.689Z,331.88
2019-05-01T15:07:57.677Z,382.50
2019-05-01T15:08:57.738Z,376.88
2019-05-01T15:10:50.754Z,326.25
2019-05-01T15:11:50.790Z,320.63
2019-05-01T15:13:43.796Z,292.50
2019-05-01T15:14:43.837Z,292.50
2019-05-01T15:16:36.848Z,286.88
2019-05-01T15:17:36.898Z,270.00
2019-05-01T15:19:29.881Z,292.50
2019-05-01T15:20:29.947Z,315.00
2019-05-01T15:22:22.947Z,326.25
2019-05-01T15:23:23.003Z,315.00
2019-05-01T15:25:15.986Z,281.25
2019-05-01T15:26:16.047Z,253.13
2019-05-01T15:28:09.060Z,258.75
2019-05-01T15:29:09.100Z,258.75
2019-05-01T15:31:02.117Z,247.50
2019-05-01T15:32:02.147Z,258.75
2019-05-01T15:33:55.135Z,264.38
2019-05-01T15:34:55.190Z,247.50
2019-05-01T15:36:48.194Z,236.25
2019-05-01T15:37:56.494Z,236.25
2019-05-01T15:39:41.223Z,320.63
2019-05-01T15:40:41.285Z,371.25
2019-05-01T15:42:34.332Z,399.38
2019-05-01T15:43:34.331Z,405.00
2019-05-01T15:45:27.316Z,388.13
2019-05-01T15:46:27.378Z,326.25
2019-05-01T15:48:20.393Z,264.38
2019-05-01T15:49:20.454Z,247.50
2019-05-01T15:51:13.443Z,236.25
2019-05-01T15:52:13.487Z,230.63
2019-05-01T15:54:06.524Z,236.25
2019-05-01T15:55:06.528Z,236.25
2019-05-01T15:56:59.555Z,208.13
2019-05-01T15:57:59.587Z,202.50
2019-05-01T15:59:52.695Z,202.50
2019-05-01T16:00:52.668Z,213.75
2019-05-01T16:02:45.637Z,258.75
2019-05-01T16:03:45.691Z,270.00
2019-05-01T16:05:38.735Z,247.50
2019-05-01T16:06:38.781Z,225.00
2019-05-01T16:08:31.806Z,241.88
2019-05-01T16:09:31.862Z,270.00
2019-05-01T16:11:24.876Z,298.13
2019-05-01T16:12:24.909Z,315.00
2019-05-01T16:14:17.909Z,331.88
2019-05-01T16:15:17.976Z,343.13
2019-05-01T16:17:10.983Z,326.25
2019-05-01T16:18:11.060Z,326.25
2019-05-01T16:20:04.042Z,315.00
2019-05-01T16:21:04.076Z,298.13
2019-05-01T16:22:57.054Z,315.00
2019-05-01T16:23:57.115Z,326.25
2019-05-01T16:25:50.133Z,348.75
2019-05-01T16:26:50.172Z,348.75
2019-05-01T16:28:43.193Z,382.50
2019-05-01T16:29:43.279Z,388.13
2019-05-01T16:31:36.275Z,337.50
2019-05-01T16:32:36.307Z,298.13
2019-05-01T16:34:29.338Z,258.75
2019-05-01T16:35:29.357Z,253.13
2019-05-01T16:37:22.365Z,241.88
2019-05-01T16:38:23.435Z,230.63
2019-05-01T16:40:15.398Z,208.13
2019-05-01T16:41:15.464Z,196.88
2019-05-01T16:43:08.477Z,191.25
2019-05-01T16:44:08.522Z,185.63
2019-05-01T16:46:01.574Z,180.00
2019-05-01T16:47:01.652Z,185.63
2019-05-01T16:48:54.638Z,185.63
2019-05-01T16:49:54.682Z,185.63
2019-05-01T16:51:47.669Z,180.00
2019-05-01T16:52:47.728Z,180.00
2019-05-01T16:54:40.741Z,174.38
2019-05-01T16:55:40.781Z,168.75
2019-05-01T16:57:33.796Z,168.75
2019-05-01T16:58:33.844Z,168.75
2019-05-01T17:00:26.849Z,163.13
2019-05-01T17:01:26.890Z,163.13
2019-05-01T17:03:19.876Z,163.13
2019-05-01T17:04:19.935Z,163.13
2019-05-01T17:06:12.951Z,168.75
2019-05-01T17:07:12.981Z,174.38
2019-05-01T17:09:05.966Z,213.75
2019-05-01T17:10:06.031Z,219.38
2019-05-01T17:11:59.034Z,225.00
2019-05-01T17:12:59.076Z,213.75
2019-05-01T17:14:52.085Z,196.88
2019-05-01T17:15:52.145Z,196.88
2019-05-01T17:17:45.127Z,202.50
2019-05-01T17:18:45.183Z,213.75
2019-05-01T17:20:38.197Z,191.25
2019-05-01T17:21:38.232Z,174.38
2019-05-01T17:23:31.219Z,151.88
2019-05-01T17:24:31.278Z,157.50
2019-05-01T17:26:24.290Z,163.13
2019-05-01T17:27:24.330Z,157.50
2019-05-01T17:29:17.320Z,157.50
2019-05-01T17:30:17.378Z,163.13
2019-05-01T17:32:10.888Z,168.75
2019-05-01T17:33:19.831Z,163.13
2019-05-01T17:35:06.695Z,163.13
2019-05-01T17:36:03.977Z,168.75
2019-05-01T17:37:56.992Z,151.88
2019-05-01T17:38:57.033Z,140.63
2019-05-01T17:40:51.949Z,129.38
2019-05-01T17:41:50.104Z,123.75
2019-05-01T17:43:44.784Z,118.13
2019-05-01T17:44:43.150Z,118.13
2019-05-01T17:46:36.147Z,106.88
2019-05-01T17:47:36.200Z,101.25
2019-05-01T17:49:29.185Z,95.63
2019-05-01T17:50:29.244Z,90.00
2019-05-01T17:52:22.254Z,84.38
2019-05-01T17:53:22.296Z,78.75
2019-05-01T17:55:15.318Z,78.75
2019-05-01T17:56:18.697Z,73.13
2019-05-01T17:58:08.333Z,73.13
2019-05-01T17:59:08.399Z,73.13
2019-05-01T18:01:01.408Z,67.50
2019-05-01T18:02:05.159Z,67.50
2019-05-01T18:03:54.455Z,67.50
2019-05-01T18:04:54.495Z,67.50
2019-05-01T18:06:47.937Z,61.88
2019-05-01T18:07:47.543Z,61.88
2019-05-01T18:09:40.546Z,56.25
2019-05-01T18:10:40.742Z,56.25
2019-05-01T18:12:33.608Z,56.25
2019-05-01T18:13:33.643Z,56.25
2019-05-01T18:15:26.622Z,50.63
2019-05-01T18:16:26.684Z,50.63
2019-05-01T18:18:19.688Z,45.00